Accueil
Images satellite Prévisions 15 joursClimatMétéo marine Cyclones Foudre AéroportsFAQ Actualités A propos
Météo : Europe Afrique Amérique du Nord Amérique du Sud Asie Australie-Océanie Autres
Langues Contact

Bauru, São Paulo, Brésil

latitude: 22-19S, longitude: 049-04W, altitude: 590 m


METAR: SBBU 251100Z 00000KT 6000 FEW030 22/20 Q1016
TAF: absent

Heure: 09:50 (11:50 UTC)

Observation

Le bulletin a été fait il y a 50 minutes, à 11:00 UTC
Vent calme
Température 22°C
Humidité 88%
Pression 1016 hPa
Visibilité: 6000 m
Quelques nuages à une hauteur de 3000 ft

Changer d'unités
Les informations qui figurent sur ce site font l'objet d'une clause de non-responsabilité
Météo : Europe Afrique Amérique du Nord Amérique du Sud Asie Australie-Océanie Autres
Images satellite Prévisions 15 joursClimatMétéo marine Cyclones Foudre AéroportsFAQ Langues Contact Actualités A propos